sensor_id;sensor_type;location;lat;lon;timestamp;P1;durP1;ratioP1;P2;durP2;ratioP2
19537;SDS011;9914;51.008;4.300;2022-09-23T00:00:22;5.70;;;5.13;;
19537;SDS011;9914;51.008;4.300;2022-09-23T00:02:48;4.80;;;4.33;;
19537;SDS011;9914;51.008;4.300;2022-09-23T00:05:16;4.87;;;4.47;;
19537;SDS011;9914;51.008;4.300;2022-09-23T00:07:42;7.27;;;5.37;;
19537;SDS011;9914;51.008;4.300;2022-09-23T00:10:08;5.13;;;4.20;;
19537;SDS011;9914;51.008;4.300;2022-09-23T00:12:34;6.10;;;4.00;;
19537;SDS011;9914;51.008;4.300;2022-09-23T00:15:00;11.47;;;4.40;;
19537;SDS011;9914;51.008;4.300;2022-09-23T00:17:26;4.47;;;4.07;;
19537;SDS011;9914;51.008;4.300;2022-09-23T00:19:51;6.90;;;4.90;;
19537;SDS011;9914;51.008;4.300;2022-09-23T00:22:19;5.73;;;4.13;;
19537;SDS011;9914;51.008;4.300;2022-09-23T00:24:45;5.63;;;4.50;;
19537;SDS011;9914;51.008;4.300;2022-09-23T00:27:10;5.70;;;5.10;;
19537;SDS011;9914;51.008;4.300;2022-09-23T00:29:36;4.90;;;4.40;;
19537;SDS011;9914;51.008;4.300;2022-09-23T00:32:02;4.70;;;4.27;;
19537;SDS011;9914;51.008;4.300;2022-09-23T00:34:29;6.43;;;4.20;;
19537;SDS011;9914;51.008;4.300;2022-09-23T00:36:55;5.20;;;4.57;;
19537;SDS011;9914;51.008;4.300;2022-09-23T00:39:24;5.20;;;4.60;;
19537;SDS011;9914;51.008;4.300;2022-09-23T00:41:52;6.60;;;4.17;;
19537;SDS011;9914;51.008;4.300;2022-09-23T00:47:28;7.57;;;4.30;;
19537;SDS011;9914;51.008;4.300;2022-09-23T00:53:07;4.63;;;4.10;;
19537;SDS011;9914;51.008;4.300;2022-09-23T00:58:04;5.03;;;4.20;;
19537;SDS011;9914;51.008;4.300;2022-09-23T01:00:35;6.03;;;4.03;;
19537;SDS011;9914;51.008;4.300;2022-09-23T01:03:01;12.87;;;4.57;;
19537;SDS011;9914;51.008;4.300;2022-09-23T01:05:29;5.50;;;4.33;;
19537;SDS011;9914;51.008;4.300;2022-09-23T01:07:55;7.43;;;4.53;;
19537;SDS011;9914;51.008;4.300;2022-09-23T01:10:23;5.10;;;4.17;;
19537;SDS011;9914;51.008;4.300;2022-09-23T01:13:03;5.03;;;4.53;;
19537;SDS011;9914;51.008;4.300;2022-09-23T01:16:40;5.33;;;4.30;;
19537;SDS011;9914;51.008;4.300;2022-09-23T01:18:56;5.80;;;4.27;;
19537;SDS011;9914;51.008;4.300;2022-09-23T01:27:21;8.33;;;4.27;;
19537;SDS011;9914;51.008;4.300;2022-09-23T01:30:01;5.10;;;4.30;;
19537;SDS011;9914;51.008;4.300;2022-09-23T01:32:34;6.70;;;4.67;;
19537;SDS011;9914;51.008;4.300;2022-09-23T01:43:30;5.50;;;3.87;;
19537;SDS011;9914;51.008;4.300;2022-09-23T01:45:46;5.87;;;4.27;;
19537;SDS011;9914;51.008;4.300;2022-09-23T01:51:24;8.53;;;4.43;;
19537;SDS011;9914;51.008;4.300;2022-09-23T01:54:09;5.93;;;4.03;;
19537;SDS011;9914;51.008;4.300;2022-09-23T01:59:58;4.07;;;3.77;;
19537;SDS011;9914;51.008;4.300;2022-09-23T02:02:33;6.80;;;4.53;;
19537;SDS011;9914;51.008;4.300;2022-09-23T02:05:10;5.57;;;3.97;;
19537;SDS011;9914;51.008;4.300;2022-09-23T02:07:43;5.50;;;4.27;;
19537;SDS011;9914;51.008;4.300;2022-09-23T02:10:19;4.50;;;3.97;;
19537;SDS011;9914;51.008;4.300;2022-09-23T02:12:50;12.77;;;4.60;;
19537;SDS011;9914;51.008;4.300;2022-09-23T02:15:25;6.67;;;4.20;;
19537;SDS011;9914;51.008;4.300;2022-09-23T02:17:59;4.23;;;3.77;;
19537;SDS011;9914;51.008;4.300;2022-09-23T02:20:29;4.47;;;4.03;;
19537;SDS011;9914;51.008;4.300;2022-09-23T02:25:44;4.27;;;3.87;;
19537;SDS011;9914;51.008;4.300;2022-09-23T02:28:44;7.13;;;4.47;;
19537;SDS011;9914;51.008;4.300;2022-09-23T02:31:26;6.83;;;4.10;;
19537;SDS011;9914;51.008;4.300;2022-09-23T02:34:17;7.73;;;5.33;;
19537;SDS011;9914;51.008;4.300;2022-09-23T02:36:55;14.50;;;6.20;;
19537;SDS011;9914;51.008;4.300;2022-09-23T02:39:37;6.80;;;4.70;;
19537;SDS011;9914;51.008;4.300;2022-09-23T02:42:11;5.43;;;4.80;;
19537;SDS011;9914;51.008;4.300;2022-09-23T02:44:40;6.00;;;4.03;;
19537;SDS011;9914;51.008;4.300;2022-09-23T02:47:06;8.33;;;4.67;;
19537;SDS011;9914;51.008;4.300;2022-09-23T02:49:32;5.53;;;4.73;;
19537;SDS011;9914;51.008;4.300;2022-09-23T02:52:01;8.10;;;4.43;;
19537;SDS011;9914;51.008;4.300;2022-09-23T02:54:31;6.90;;;3.63;;
19537;SDS011;9914;51.008;4.300;2022-09-23T02:57:01;5.50;;;4.40;;
19537;SDS011;9914;51.008;4.300;2022-09-23T02:59:30;6.80;;;4.27;;
19537;SDS011;9914;51.008;4.300;2022-09-23T03:05:06;6.53;;;4.53;;
19537;SDS011;9914;51.008;4.300;2022-09-23T03:18:30;5.07;;;4.47;;
19537;SDS011;9914;51.008;4.300;2022-09-23T03:21:13;4.73;;;4.27;;
19537;SDS011;9914;51.008;4.300;2022-09-23T03:23:41;5.10;;;4.43;;
19537;SDS011;9914;51.008;4.300;2022-09-23T03:26:10;4.90;;;4.40;;
19537;SDS011;9914;51.008;4.300;2022-09-23T03:28:41;5.20;;;4.33;;
19537;SDS011;9914;51.008;4.300;2022-09-23T03:31:10;5.00;;;4.20;;
19537;SDS011;9914;51.008;4.300;2022-09-23T03:33:37;6.33;;;4.23;;
19537;SDS011;9914;51.008;4.300;2022-09-23T03:36:07;4.93;;;4.33;;
19537;SDS011;9914;51.008;4.300;2022-09-23T03:39:04;4.73;;;4.33;;
19537;SDS011;9914;51.008;4.300;2022-09-23T03:41:37;7.33;;;4.13;;
19537;SDS011;9914;51.008;4.300;2022-09-23T03:44:07;5.13;;;4.20;;
19537;SDS011;9914;51.008;4.300;2022-09-23T03:46:34;5.30;;;4.27;;
19537;SDS011;9914;51.008;4.300;2022-09-23T03:49:12;4.40;;;4.00;;
19537;SDS011;9914;51.008;4.300;2022-09-23T03:51:47;4.73;;;4.13;;
19537;SDS011;9914;51.008;4.300;2022-09-23T03:54:12;7.50;;;4.77;;
19537;SDS011;9914;51.008;4.300;2022-09-23T03:56:38;5.23;;;4.03;;
19537;SDS011;9914;51.008;4.300;2022-09-23T03:59:03;6.53;;;4.30;;
19537;SDS011;9914;51.008;4.300;2022-09-23T04:01:29;5.23;;;4.30;;
19537;SDS011;9914;51.008;4.300;2022-09-23T04:03:55;6.43;;;4.00;;
19537;SDS011;9914;51.008;4.300;2022-09-23T04:06:20;5.17;;;4.03;;
19537;SDS011;9914;51.008;4.300;2022-09-23T04:08:46;4.23;;;3.87;;
19537;SDS011;9914;51.008;4.300;2022-09-23T04:11:12;6.93;;;4.20;;
19537;SDS011;9914;51.008;4.300;2022-09-23T04:13:38;7.33;;;4.57;;
19537;SDS011;9914;51.008;4.300;2022-09-23T04:16:04;5.80;;;4.57;;
19537;SDS011;9914;51.008;4.300;2022-09-23T04:18:30;9.73;;;4.50;;
19537;SDS011;9914;51.008;4.300;2022-09-23T04:20:59;5.33;;;4.23;;
19537;SDS011;9914;51.008;4.300;2022-09-23T04:23:25;6.80;;;4.70;;
19537;SDS011;9914;51.008;4.300;2022-09-23T04:25:51;5.33;;;4.63;;
19537;SDS011;9914;51.008;4.300;2022-09-23T04:28:17;9.37;;;4.83;;
19537;SDS011;9914;51.008;4.300;2022-09-23T04:30:43;8.60;;;4.60;;
19537;SDS011;9914;51.008;4.300;2022-09-23T04:33:10;7.27;;;4.47;;
19537;SDS011;9914;51.008;4.300;2022-09-23T04:35:36;4.50;;;4.10;;
19537;SDS011;9914;51.008;4.300;2022-09-23T04:38:03;6.27;;;5.10;;
19537;SDS011;9914;51.008;4.300;2022-09-23T04:40:34;4.13;;;3.80;;
19537;SDS011;9914;51.008;4.300;2022-09-23T04:43:00;4.70;;;4.07;;
19537;SDS011;9914;51.008;4.300;2022-09-23T04:45:25;6.20;;;4.43;;
19537;SDS011;9914;51.008;4.300;2022-09-23T04:47:51;4.47;;;4.07;;
19537;SDS011;9914;51.008;4.300;2022-09-23T04:50:17;9.17;;;4.43;;
19537;SDS011;9914;51.008;4.300;2022-09-23T04:52:43;6.17;;;4.50;;
19537;SDS011;9914;51.008;4.300;2022-09-23T04:55:09;5.70;;;4.40;;
19537;SDS011;9914;51.008;4.300;2022-09-23T04:57:34;7.57;;;4.50;;
19537;SDS011;9914;51.008;4.300;2022-09-23T05:00:00;6.97;;;4.50;;
19537;SDS011;9914;51.008;4.300;2022-09-23T05:02:26;5.37;;;4.63;;
19537;SDS011;9914;51.008;4.300;2022-09-23T05:04:52;5.43;;;4.10;;
19537;SDS011;9914;51.008;4.300;2022-09-23T05:07:18;5.93;;;4.93;;
19537;SDS011;9914;51.008;4.300;2022-09-23T05:09:44;7.90;;;5.07;;
19537;SDS011;9914;51.008;4.300;2022-09-23T05:12:10;5.50;;;4.73;;
19537;SDS011;9914;51.008;4.300;2022-09-23T05:14:36;5.10;;;4.33;;
19537;SDS011;9914;51.008;4.300;2022-09-23T05:17:04;5.20;;;4.60;;
19537;SDS011;9914;51.008;4.300;2022-09-23T05:19:30;5.97;;;5.07;;
19537;SDS011;9914;51.008;4.300;2022-09-23T05:21:56;4.70;;;4.27;;
19537;SDS011;9914;51.008;4.300;2022-09-23T05:24:21;5.17;;;4.67;;
19537;SDS011;9914;51.008;4.300;2022-09-23T05:26:49;6.23;;;5.03;;
19537;SDS011;9914;51.008;4.300;2022-09-23T05:29:15;6.20;;;5.10;;
19537;SDS011;9914;51.008;4.300;2022-09-23T05:31:41;5.50;;;5.00;;
19537;SDS011;9914;51.008;4.300;2022-09-23T05:34:07;6.37;;;4.97;;
19537;SDS011;9914;51.008;4.300;2022-09-23T05:36:33;6.27;;;5.23;;
19537;SDS011;9914;51.008;4.300;2022-09-23T05:39:00;8.63;;;5.37;;
19537;SDS011;9914;51.008;4.300;2022-09-23T05:41:26;5.67;;;4.87;;
19537;SDS011;9914;51.008;4.300;2022-09-23T05:43:52;5.67;;;4.83;;
19537;SDS011;9914;51.008;4.300;2022-09-23T05:46:22;5.43;;;4.93;;
19537;SDS011;9914;51.008;4.300;2022-09-23T05:48:52;6.27;;;4.80;;
19537;SDS011;9914;51.008;4.300;2022-09-23T05:51:20;5.30;;;4.80;;
19537;SDS011;9914;51.008;4.300;2022-09-23T05:53:48;6.77;;;5.10;;
19537;SDS011;9914;51.008;4.300;2022-09-23T05:56:17;7.87;;;5.27;;
19537;SDS011;9914;51.008;4.300;2022-09-23T05:58:47;10.07;;;4.80;;
19537;SDS011;9914;51.008;4.300;2022-09-23T06:01:14;8.53;;;5.50;;
19537;SDS011;9914;51.008;4.300;2022-09-23T06:03:54;7.87;;;6.13;;
19537;SDS011;9914;51.008;4.300;2022-09-23T06:06:40;8.00;;;4.97;;
19537;SDS011;9914;51.008;4.300;2022-09-23T06:09:08;7.87;;;5.47;;
19537;SDS011;9914;51.008;4.300;2022-09-23T06:11:38;8.60;;;5.10;;
19537;SDS011;9914;51.008;4.300;2022-09-23T06:14:05;6.17;;;4.87;;
19537;SDS011;9914;51.008;4.300;2022-09-23T06:16:33;5.27;;;4.77;;
19537;SDS011;9914;51.008;4.300;2022-09-23T06:18:59;7.17;;;5.20;;
19537;SDS011;9914;51.008;4.300;2022-09-23T06:21:32;5.50;;;4.90;;
19537;SDS011;9914;51.008;4.300;2022-09-23T06:23:59;5.53;;;4.70;;
19537;SDS011;9914;51.008;4.300;2022-09-23T06:26:25;6.83;;;4.60;;
19537;SDS011;9914;51.008;4.300;2022-09-23T06:28:52;6.20;;;4.57;;
19537;SDS011;9914;51.008;4.300;2022-09-23T06:31:18;6.53;;;4.60;;
19537;SDS011;9914;51.008;4.300;2022-09-23T06:33:44;7.90;;;4.37;;
19537;SDS011;9914;51.008;4.300;2022-09-23T06:36:10;7.57;;;4.33;;
19537;SDS011;9914;51.008;4.300;2022-09-23T06:38:38;5.40;;;4.33;;
19537;SDS011;9914;51.008;4.300;2022-09-23T06:41:04;10.53;;;4.27;;
19537;SDS011;9914;51.008;4.300;2022-09-23T06:43:30;5.33;;;4.63;;
19537;SDS011;9914;51.008;4.300;2022-09-23T06:45:56;7.30;;;5.00;;
19537;SDS011;9914;51.008;4.300;2022-09-23T06:48:23;8.83;;;4.90;;
19537;SDS011;9914;51.008;4.300;2022-09-23T06:50:50;7.00;;;4.47;;
19537;SDS011;9914;51.008;4.300;2022-09-23T06:53:17;7.70;;;5.10;;
19537;SDS011;9914;51.008;4.300;2022-09-23T06:55:46;6.27;;;4.67;;
19537;SDS011;9914;51.008;4.300;2022-09-23T06:58:13;6.37;;;4.73;;
19537;SDS011;9914;51.008;4.300;2022-09-23T07:00:38;6.53;;;4.80;;
19537;SDS011;9914;51.008;4.300;2022-09-23T07:03:07;6.53;;;4.70;;
19537;SDS011;9914;51.008;4.300;2022-09-23T07:05:34;7.23;;;4.83;;
19537;SDS011;9914;51.008;4.300;2022-09-23T07:07:59;6.27;;;5.00;;
19537;SDS011;9914;51.008;4.300;2022-09-23T07:10:25;8.67;;;4.83;;
19537;SDS011;9914;51.008;4.300;2022-09-23T07:12:55;7.77;;;4.87;;
19537;SDS011;9914;51.008;4.300;2022-09-23T07:15:24;6.60;;;5.17;;
19537;SDS011;9914;51.008;4.300;2022-09-23T07:17:50;7.43;;;5.17;;
19537;SDS011;9914;51.008;4.300;2022-09-23T07:20:16;8.33;;;5.13;;
19537;SDS011;9914;51.008;4.300;2022-09-23T07:22:42;6.50;;;5.43;;
19537;SDS011;9914;51.008;4.300;2022-09-23T07:25:12;5.73;;;5.13;;
19537;SDS011;9914;51.008;4.300;2022-09-23T07:27:38;7.97;;;4.60;;
19537;SDS011;9914;51.008;4.300;2022-09-23T07:30:04;6.03;;;5.00;;
19537;SDS011;9914;51.008;4.300;2022-09-23T07:32:30;8.33;;;5.57;;
19537;SDS011;9914;51.008;4.300;2022-09-23T07:34:56;8.63;;;5.47;;
19537;SDS011;9914;51.008;4.300;2022-09-23T07:37:21;7.07;;;5.33;;
19537;SDS011;9914;51.008;4.300;2022-09-23T07:39:47;9.73;;;5.53;;
19537;SDS011;9914;51.008;4.300;2022-09-23T07:42:12;9.73;;;5.50;;
19537;SDS011;9914;51.008;4.300;2022-09-23T07:44:39;14.77;;;5.63;;
19537;SDS011;9914;51.008;4.300;2022-09-23T07:47:08;11.87;;;5.40;;
19537;SDS011;9914;51.008;4.300;2022-09-23T07:49:33;8.80;;;5.33;;
19537;SDS011;9914;51.008;4.300;2022-09-23T07:52:00;7.67;;;5.77;;
19537;SDS011;9914;51.008;4.300;2022-09-23T07:54:25;6.03;;;4.83;;
19537;SDS011;9914;51.008;4.300;2022-09-23T07:56:53;6.77;;;4.70;;
19537;SDS011;9914;51.008;4.300;2022-09-23T07:59:20;5.23;;;4.20;;
19537;SDS011;9914;51.008;4.300;2022-09-23T08:01:46;8.20;;;4.77;;
19537;SDS011;9914;51.008;4.300;2022-09-23T08:04:24;6.53;;;4.93;;
19537;SDS011;9914;51.008;4.300;2022-09-23T08:06:53;9.13;;;4.80;;
19537;SDS011;9914;51.008;4.300;2022-09-23T08:09:22;6.47;;;4.70;;
19537;SDS011;9914;51.008;4.300;2022-09-23T08:11:51;6.70;;;4.73;;
19537;SDS011;9914;51.008;4.300;2022-09-23T08:14:17;6.53;;;4.30;;
19537;SDS011;9914;51.008;4.300;2022-09-23T08:16:43;9.17;;;4.47;;
19537;SDS011;9914;51.008;4.300;2022-09-23T08:19:11;7.33;;;4.97;;
19537;SDS011;9914;51.008;4.300;2022-09-23T08:21:37;6.23;;;5.27;;
19537;SDS011;9914;51.008;4.300;2022-09-23T08:24:13;6.77;;;4.67;;
19537;SDS011;9914;51.008;4.300;2022-09-23T08:26:41;5.90;;;4.90;;
19537;SDS011;9914;51.008;4.300;2022-09-23T08:29:07;6.33;;;5.03;;
19537;SDS011;9914;51.008;4.300;2022-09-23T08:31:36;7.53;;;5.10;;
19537;SDS011;9914;51.008;4.300;2022-09-23T08:34:02;6.00;;;5.40;;
19537;SDS011;9914;51.008;4.300;2022-09-23T08:36:27;6.40;;;4.90;;
19537;SDS011;9914;51.008;4.300;2022-09-23T08:38:53;7.13;;;5.10;;
19537;SDS011;9914;51.008;4.300;2022-09-23T08:44:02;8.70;;;5.27;;
19537;SDS011;9914;51.008;4.300;2022-09-23T08:47:37;8.93;;;5.87;;
19537;SDS011;9914;51.008;4.300;2022-09-23T08:50:01;6.60;;;4.70;;
19537;SDS011;9914;51.008;4.300;2022-09-23T08:52:38;6.77;;;4.80;;
19537;SDS011;9914;51.008;4.300;2022-09-23T08:55:17;10.10;;;5.27;;
19537;SDS011;9914;51.008;4.300;2022-09-23T08:57:57;11.67;;;4.80;;
19537;SDS011;9914;51.008;4.300;2022-09-23T09:00:52;6.00;;;4.97;;
19537;SDS011;9914;51.008;4.300;2022-09-23T09:04:02;7.37;;;4.80;;
19537;SDS011;9914;51.008;4.300;2022-09-23T09:06:39;7.40;;;4.47;;
19537;SDS011;9914;51.008;4.300;2022-09-23T09:09:22;9.33;;;4.40;;
19537;SDS011;9914;51.008;4.300;2022-09-23T09:11:48;7.23;;;4.83;;
19537;SDS011;9914;51.008;4.300;2022-09-23T09:14:27;6.43;;;4.53;;
19537;SDS011;9914;51.008;4.300;2022-09-23T09:18:07;14.33;;;5.07;;
19537;SDS011;9914;51.008;4.300;2022-09-23T09:27:46;7.47;;;4.27;;
19537;SDS011;9914;51.008;4.300;2022-09-23T09:30:13;11.73;;;4.80;;
19537;SDS011;9914;51.008;4.300;2022-09-23T09:32:53;9.93;;;4.63;;
19537;SDS011;9914;51.008;4.300;2022-09-23T09:35:32;5.40;;;4.50;;
19537;SDS011;9914;51.008;4.300;2022-09-23T09:38:06;6.27;;;4.90;;
19537;SDS011;9914;51.008;4.300;2022-09-23T09:40:32;7.67;;;4.83;;
19537;SDS011;9914;51.008;4.300;2022-09-23T09:42:59;8.60;;;4.90;;
19537;SDS011;9914;51.008;4.300;2022-09-23T09:48:49;5.53;;;4.43;;
19537;SDS011;9914;51.008;4.300;2022-09-23T09:51:21;6.60;;;4.83;;
19537;SDS011;9914;51.008;4.300;2022-09-23T09:53:48;6.17;;;4.97;;
19537;SDS011;9914;51.008;4.300;2022-09-23T09:56:18;7.37;;;5.13;;
19537;SDS011;9914;51.008;4.300;2022-09-23T09:58:52;16.40;;;5.47;;
19537;SDS011;9914;51.008;4.300;2022-09-23T10:03:53;12.77;;;8.43;;
19537;SDS011;9914;51.008;4.300;2022-09-23T10:06:24;10.67;;;7.50;;
19537;SDS011;9914;51.008;4.300;2022-09-23T10:11:39;12.70;;;5.23;;
19537;SDS011;9914;51.008;4.300;2022-09-23T10:16:33;7.43;;;5.10;;
19537;SDS011;9914;51.008;4.300;2022-09-23T10:19:00;7.30;;;5.17;;
19537;SDS011;9914;51.008;4.300;2022-09-23T10:21:32;8.10;;;4.93;;
19537;SDS011;9914;51.008;4.300;2022-09-23T10:24:01;8.70;;;4.73;;
19537;SDS011;9914;51.008;4.300;2022-09-23T10:29:27;9.17;;;4.83;;
19537;SDS011;9914;51.008;4.300;2022-09-23T10:34:39;9.17;;;4.63;;
19537;SDS011;9914;51.008;4.300;2022-09-23T10:37:23;9.07;;;4.47;;
19537;SDS011;9914;51.008;4.300;2022-09-23T10:39:55;6.37;;;4.57;;
19537;SDS011;9914;51.008;4.300;2022-09-23T10:43:17;6.63;;;4.47;;
19537;SDS011;9914;51.008;4.300;2022-09-23T10:45:58;5.93;;;4.30;;
19537;SDS011;9914;51.008;4.300;2022-09-23T10:51:58;5.20;;;4.70;;
19537;SDS011;9914;51.008;4.300;2022-09-23T10:57:23;6.23;;;4.73;;
19537;SDS011;9914;51.008;4.300;2022-09-23T11:14:01;6.63;;;4.30;;
19537;SDS011;9914;51.008;4.300;2022-09-23T11:25:24;6.50;;;3.90;;
19537;SDS011;9914;51.008;4.300;2022-09-23T11:30:42;8.97;;;3.93;;
19537;SDS011;9914;51.008;4.300;2022-09-23T11:33:23;4.63;;;4.03;;
19537;SDS011;9914;51.008;4.300;2022-09-23T11:36:20;5.73;;;4.20;;
19537;SDS011;9914;51.008;4.300;2022-09-23T11:38:54;4.43;;;3.60;;
19537;SDS011;9914;51.008;4.300;2022-09-23T11:41:27;4.17;;;3.60;;
19537;SDS011;9914;51.008;4.300;2022-09-23T11:44:04;5.27;;;3.63;;
19537;SDS011;9914;51.008;4.300;2022-09-23T11:46:36;5.63;;;4.10;;
19537;SDS011;9914;51.008;4.300;2022-09-23T11:52:03;6.53;;;3.53;;
19537;SDS011;9914;51.008;4.300;2022-09-23T11:54:42;5.13;;;3.67;;
19537;SDS011;9914;51.008;4.300;2022-09-23T11:57:56;6.03;;;3.60;;
19537;SDS011;9914;51.008;4.300;2022-09-23T12:00:00;3.57;;;3.27;;
19537;SDS011;9914;51.008;4.300;2022-09-23T12:02:40;3.87;;;3.37;;
19537;SDS011;9914;51.008;4.300;2022-09-23T12:05:16;5.93;;;3.70;;
19537;SDS011;9914;51.008;4.300;2022-09-23T12:08:00;5.07;;;3.20;;
19537;SDS011;9914;51.008;4.300;2022-09-23T12:24:58;4.27;;;3.63;;
19537;SDS011;9914;51.008;4.300;2022-09-23T12:27:51;3.93;;;3.50;;
19537;SDS011;9914;51.008;4.300;2022-09-23T12:30:26;3.93;;;3.60;;
19537;SDS011;9914;51.008;4.300;2022-09-23T12:35:38;4.50;;;3.60;;
19537;SDS011;9914;51.008;4.300;2022-09-23T12:38:51;7.70;;;6.17;;
19537;SDS011;9914;51.008;4.300;2022-09-23T12:41:27;6.13;;;4.30;;
19537;SDS011;9914;51.008;4.300;2022-09-23T12:46:36;5.03;;;4.07;;
19537;SDS011;9914;51.008;4.300;2022-09-23T12:49:03;6.07;;;3.97;;
19537;SDS011;9914;51.008;4.300;2022-09-23T12:51:34;4.90;;;4.10;;
19537;SDS011;9914;51.008;4.300;2022-09-23T12:59:01;6.67;;;4.63;;
19537;SDS011;9914;51.008;4.300;2022-09-23T13:01:35;6.33;;;4.40;;
19537;SDS011;9914;51.008;4.300;2022-09-23T13:04:02;7.97;;;4.50;;
19537;SDS011;9914;51.008;4.300;2022-09-23T13:07:05;5.93;;;4.47;;
19537;SDS011;9914;51.008;4.300;2022-09-23T13:09:40;4.53;;;4.07;;
19537;SDS011;9914;51.008;4.300;2022-09-23T13:12:15;9.50;;;5.33;;
19537;SDS011;9914;51.008;4.300;2022-09-23T13:14:45;5.03;;;4.53;;
19537;SDS011;9914;51.008;4.300;2022-09-23T13:25:18;6.53;;;5.27;;
19537;SDS011;9914;51.008;4.300;2022-09-23T13:27:57;7.83;;;5.07;;
19537;SDS011;9914;51.008;4.300;2022-09-23T13:30:26;6.17;;;5.57;;
19537;SDS011;9914;51.008;4.300;2022-09-23T13:35:31;11.80;;;6.30;;
19537;SDS011;9914;51.008;4.300;2022-09-23T13:40:55;6.20;;;5.37;;
19537;SDS011;9914;51.008;4.300;2022-09-23T13:43:22;5.80;;;5.20;;
19537;SDS011;9914;51.008;4.300;2022-09-23T13:45:51;9.27;;;5.27;;
19537;SDS011;9914;51.008;4.300;2022-09-23T13:48:17;4.90;;;4.40;;
19537;SDS011;9914;51.008;4.300;2022-09-23T13:50:48;5.83;;;5.23;;
19537;SDS011;9914;51.008;4.300;2022-09-23T13:53:21;6.03;;;5.40;;
19537;SDS011;9914;51.008;4.300;2022-09-23T13:55:59;6.67;;;5.20;;
19537;SDS011;9914;51.008;4.300;2022-09-23T13:58:26;10.83;;;5.53;;
19537;SDS011;9914;51.008;4.300;2022-09-23T14:00:53;9.20;;;5.37;;
19537;SDS011;9914;51.008;4.300;2022-09-23T14:03:34;5.67;;;5.10;;
19537;SDS011;9914;51.008;4.300;2022-09-23T14:06:03;8.70;;;5.90;;
19537;SDS011;9914;51.008;4.300;2022-09-23T14:08:32;6.67;;;5.57;;
19537;SDS011;9914;51.008;4.300;2022-09-23T14:10:58;6.00;;;5.30;;
19537;SDS011;9914;51.008;4.300;2022-09-23T14:13:25;7.93;;;5.40;;
19537;SDS011;9914;51.008;4.300;2022-09-23T14:15:55;9.43;;;5.57;;
19537;SDS011;9914;51.008;4.300;2022-09-23T14:18:27;7.20;;;5.47;;
19537;SDS011;9914;51.008;4.300;2022-09-23T14:20:54;9.17;;;5.60;;
19537;SDS011;9914;51.008;4.300;2022-09-23T14:23:20;7.17;;;5.53;;
19537;SDS011;9914;51.008;4.300;2022-09-23T14:25:45;7.57;;;5.90;;
19537;SDS011;9914;51.008;4.300;2022-09-23T14:28:13;5.73;;;4.97;;
19537;SDS011;9914;51.008;4.300;2022-09-23T14:30:44;8.23;;;6.57;;
19537;SDS011;9914;51.008;4.300;2022-09-23T14:33:32;7.50;;;5.97;;
19537;SDS011;9914;51.008;4.300;2022-09-23T14:36:04;10.77;;;5.50;;
19537;SDS011;9914;51.008;4.300;2022-09-23T14:39:04;9.87;;;6.10;;
19537;SDS011;9914;51.008;4.300;2022-09-23T14:41:35;8.83;;;5.77;;
19537;SDS011;9914;51.008;4.300;2022-09-23T14:44:04;8.73;;;6.20;;
19537;SDS011;9914;51.008;4.300;2022-09-23T14:46:34;10.27;;;6.30;;
19537;SDS011;9914;51.008;4.300;2022-09-23T14:51:44;7.90;;;5.90;;
19537;SDS011;9914;51.008;4.300;2022-09-23T15:02:33;6.67;;;5.90;;
19537;SDS011;9914;51.008;4.300;2022-09-23T15:05:15;7.47;;;5.67;;
19537;SDS011;9914;51.008;4.300;2022-09-23T15:07:43;8.13;;;5.37;;
19537;SDS011;9914;51.008;4.300;2022-09-23T15:10:26;7.03;;;5.70;;
19537;SDS011;9914;51.008;4.300;2022-09-23T15:13:00;8.67;;;5.93;;
19537;SDS011;9914;51.008;4.300;2022-09-23T15:15:29;6.67;;;5.57;;
19537;SDS011;9914;51.008;4.300;2022-09-23T15:18:01;7.10;;;6.40;;
19537;SDS011;9914;51.008;4.300;2022-09-23T15:20:28;6.00;;;5.30;;
19537;SDS011;9914;51.008;4.300;2022-09-23T15:22:55;7.20;;;5.73;;
19537;SDS011;9914;51.008;4.300;2022-09-23T15:30:35;7.77;;;6.03;;
19537;SDS011;9914;51.008;4.300;2022-09-23T15:33:03;9.13;;;5.93;;
19537;SDS011;9914;51.008;4.300;2022-09-23T15:35:29;7.23;;;6.20;;
19537;SDS011;9914;51.008;4.300;2022-09-23T15:37:59;8.47;;;6.57;;
19537;SDS011;9914;51.008;4.300;2022-09-23T15:40:27;7.60;;;6.23;;
19537;SDS011;9914;51.008;4.300;2022-09-23T15:42:57;6.57;;;5.97;;
19537;SDS011;9914;51.008;4.300;2022-09-23T15:45:35;7.00;;;5.73;;
19537;SDS011;9914;51.008;4.300;2022-09-23T15:48:09;8.97;;;6.90;;
19537;SDS011;9914;51.008;4.300;2022-09-23T15:50:38;8.87;;;6.07;;
19537;SDS011;9914;51.008;4.300;2022-09-23T15:53:05;8.00;;;7.00;;
19537;SDS011;9914;51.008;4.300;2022-09-23T15:55:31;8.23;;;7.13;;
19537;SDS011;9914;51.008;4.300;2022-09-23T15:57:58;7.60;;;6.80;;
19537;SDS011;9914;51.008;4.300;2022-09-23T16:00:23;9.90;;;6.83;;
19537;SDS011;9914;51.008;4.300;2022-09-23T16:02:49;7.93;;;7.23;;
19537;SDS011;9914;51.008;4.300;2022-09-23T16:05:17;10.83;;;7.63;;
19537;SDS011;9914;51.008;4.300;2022-09-23T16:07:50;9.93;;;8.03;;
19537;SDS011;9914;51.008;4.300;2022-09-23T16:10:17;12.97;;;7.63;;
19537;SDS011;9914;51.008;4.300;2022-09-23T16:12:44;9.50;;;8.27;;
19537;SDS011;9914;51.008;4.300;2022-09-23T16:15:14;10.63;;;8.33;;
19537;SDS011;9914;51.008;4.300;2022-09-23T16:17:42;9.17;;;8.13;;
19537;SDS011;9914;51.008;4.300;2022-09-23T16:20:09;8.67;;;7.87;;
19537;SDS011;9914;51.008;4.300;2022-09-23T16:22:36;8.63;;;7.73;;
19537;SDS011;9914;51.008;4.300;2022-09-23T16:25:03;9.33;;;7.87;;
19537;SDS011;9914;51.008;4.300;2022-09-23T16:27:30;12.20;;;7.60;;
19537;SDS011;9914;51.008;4.300;2022-09-23T16:29:55;9.57;;;8.07;;
19537;SDS011;9914;51.008;4.300;2022-09-23T16:32:21;10.20;;;8.67;;
19537;SDS011;9914;51.008;4.300;2022-09-23T16:34:48;12.23;;;8.53;;
19537;SDS011;9914;51.008;4.300;2022-09-23T16:37:14;9.53;;;8.60;;
19537;SDS011;9914;51.008;4.300;2022-09-23T16:39:40;10.03;;;8.73;;
19537;SDS011;9914;51.008;4.300;2022-09-23T16:42:06;10.23;;;8.77;;
19537;SDS011;9914;51.008;4.300;2022-09-23T16:44:32;15.27;;;13.23;;
19537;SDS011;9914;51.008;4.300;2022-09-23T16:46:58;18.00;;;16.20;;
19537;SDS011;9914;51.008;4.300;2022-09-23T16:49:24;23.30;;;13.63;;
19537;SDS011;9914;51.008;4.300;2022-09-23T16:51:51;12.90;;;8.90;;
19537;SDS011;9914;51.008;4.300;2022-09-23T16:54:17;14.73;;;8.53;;
19537;SDS011;9914;51.008;4.300;2022-09-23T16:56:44;9.00;;;7.70;;
19537;SDS011;9914;51.008;4.300;2022-09-23T16:59:10;9.40;;;7.63;;
19537;SDS011;9914;51.008;4.300;2022-09-23T17:01:37;11.67;;;8.13;;
19537;SDS011;9914;51.008;4.300;2022-09-23T17:04:21;9.07;;;8.17;;
19537;SDS011;9914;51.008;4.300;2022-09-23T17:06:47;12.27;;;9.67;;
19537;SDS011;9914;51.008;4.300;2022-09-23T17:09:18;9.50;;;8.47;;
19537;SDS011;9914;51.008;4.300;2022-09-23T17:11:45;10.37;;;7.73;;
19537;SDS011;9914;51.008;4.300;2022-09-23T17:14:14;9.60;;;8.53;;
19537;SDS011;9914;51.008;4.300;2022-09-23T17:16:40;11.00;;;9.30;;
19537;SDS011;9914;51.008;4.300;2022-09-23T17:19:06;11.13;;;10.00;;
19537;SDS011;9914;51.008;4.300;2022-09-23T17:21:33;10.50;;;9.07;;
19537;SDS011;9914;51.008;4.300;2022-09-23T17:23:59;13.57;;;9.70;;
19537;SDS011;9914;51.008;4.300;2022-09-23T17:26:25;14.00;;;10.33;;
19537;SDS011;9914;51.008;4.300;2022-09-23T17:28:52;11.23;;;9.97;;
19537;SDS011;9914;51.008;4.300;2022-09-23T17:31:19;14.13;;;11.03;;
19537;SDS011;9914;51.008;4.300;2022-09-23T17:33:48;11.07;;;10.00;;
19537;SDS011;9914;51.008;4.300;2022-09-23T17:36:15;11.83;;;10.63;;
19537;SDS011;9914;51.008;4.300;2022-09-23T17:38:41;11.03;;;9.87;;
19537;SDS011;9914;51.008;4.300;2022-09-23T17:41:09;11.67;;;10.47;;
19537;SDS011;9914;51.008;4.300;2022-09-23T17:43:35;12.53;;;11.20;;
19537;SDS011;9914;51.008;4.300;2022-09-23T17:46:03;18.63;;;14.47;;
19537;SDS011;9914;51.008;4.300;2022-09-23T17:48:31;14.57;;;11.93;;
19537;SDS011;9914;51.008;4.300;2022-09-23T17:51:03;17.20;;;13.17;;
19537;SDS011;9914;51.008;4.300;2022-09-23T17:53:32;13.53;;;12.17;;
19537;SDS011;9914;51.008;4.300;2022-09-23T17:56:07;12.97;;;11.67;;
19537;SDS011;9914;51.008;4.300;2022-09-23T17:58:40;16.03;;;12.77;;
19537;SDS011;9914;51.008;4.300;2022-09-23T18:01:27;16.77;;;11.30;;